METAR

METAR RPLL (MNL) – NINOY AQUINO INTERNATIONAL AIRPORT (MANILA INTERNATIONAL AIRPORT)
RPLL 261300Z 05004KT 360V070 9999 FEW023CB BKN100 27/25 Q1009 RETS NOSIG RMK A2980 CB/OCNL LTG DSNT N
RPLL 261200Z VRB06KT 9999 -TSRA FEW020CB SCT023 BKN090 29/26 Q1008 NOSIG RMK A2977 CB N-SW/OHD
RPLL 261111Z 24008KT 9999 TS FEW022CB SCT023 BKN090 30/26 Q1006 TEMPO 5000 TSRA RMK A2971 CB NE/E/OHD
RPLL 261100Z 25009KT 9999 VCTS FEW022CB SCT023 BKN090 30/26 Q1006 TEMPO -TSRA RMK A2971 CB E
RPLL 261000Z 25010KT 9999 FEW022CB SCT023 BKN090 31/26 Q1006 NOSIG RMK A2971 CB E
RPLL 260900Z 26010KT 9999 SCT025 BKN100 31/25 Q1005 NOSIG RMK A2968
RPLL 260800Z 22009KT 9999 SCT025 BKN300 32/25 Q1005 NOSIG RMK A2968
RPLL 260700Z 26008KT 9999 FEW023CB SCT025 BKN100 31/25 Q1006 NOSIG RMK A2971 CB SW
RPLL 260600Z 27009KT 9999 FEW023CB SCT025 SCT00 32/24 Q1006 NOSIG RMK A297 CB NE SW
RPLL 260500Z 28009KT 260V320 999 FEW023CB SCT025 SCT100 32/26 Q1007 RMK A2974 CB S-SW NW
RPLL 260400Z VRB04KT 9999 FEW023CB SCT025 SCT100 32/25 Q1008 NOSIG RMK A2977 CB SW NW
RPLL 260300Z 10006KT 060V210 9999 FEW023CB SCT025 SCT100 34/25 Q1009 NOSIG RMK A2980 CB SW
RPLL 260200Z VRB05KT 9999 SCT025 33/25 Q1010 NOSIG RMK A2983
RPLL 260100Z VRB05KT 9999 FEW025 BKN300 31/25 Q1010 NOSIG RMK A2983
RPLL 260000Z 12005KT 050V180 9999 FEW027 SCT100 31/25 Q1010 NOSIG RMK A2983
RPLL 252300Z VRB02KT 9999 FEW025 BKN300 28/26 Q1009 NOSIG RMK A2980
RPLL 252200Z VRB02KT 9999 FEW025 BKN300 27/26 Q1008 NOSIG RMK A2977
RPLL 252100Z 00000KT 9999 FEW025 27/25 Q1007 NOSIG RMK A2974
RPLL 252000Z VRB01KT 9999 FEW022 27/25 Q1007 NOSIG RMK A2974
RPLL 251900Z 00000KT 9999 SCT025 SCT300 27/24 Q1007 NOSIG RMK A2974
RPLL 251800Z VRB02KT 9999 FEW025 SCT300 28/25 Q1008 NOSIG RMK A2977
RPLL 251700Z VRB01KT 9999 FEW025 SCT300 28/25 Q1008 NOSIG RMK A2977
RPLL 251600Z VRB01KT 9999 FEW025 SCT300 29/25 Q1009 NOSIG RMK A2980
RPLL 251500Z VRB01KT 9999 FEW025 SCT300 29/24 Q1009 NOSIG RMK A2980
RPLL 251400Z 00000KT 9999 FEW025 SCT100 29/24 Q1010 NOSIG RMK A2983
RPLL 251300Z VRB02KT 9999 FEW025 SCT100 29/24 Q1010 NOSIG RMK A2983
RPLL 251200Z VRB01KT 9999 FEW025 BKN100 29/24 Q1009 NOSIG RMK A2980
RPLL 251100Z VRB02KT 9999 SCT025 BKN100 30/25 Q1009 NOSIG RMK A2980
RPLL 251000Z 23003KT 9999 FEW023CB SCT025 BKN100 29/24 Q1008 NOSIG RMK A2977 CB S
RPLL 250700Z 18004KT 140V210 999 ST022 BKN090 30/24 Q1008 RETSSHRA NOSIG RM A2977
RPLL 250600Z 22008KT 190V250 8000 -TSRA SCT022CB SCT023 BKN090 28/24 Q1009 NOSIG RMK A2980 CB E-W/OHD
RPLL 250300Z VRB05KT 9999 SCT025 34/24 Q1010 NOSIG RMK A2983
RPLL 250200Z 11004KT 040V170 9999 FEW025 33/25 Q1011 NOSIG RMK A2985
RPLL 250100Z 11004KT 030V190 9999 FEW027 SCT300 32/26 Q1011 NOSIG RMK A2985
RPLL 250000Z 11003KT 040V210 9999 FEW027 BKN300 31/26 Q1011 NOSIG RMK A2985

RPVM (CEB) – MACTAN-CEBU INTERNATIONAL AIRPORT
RPVM 261300Z 10004KT 9000 -SHRA FEW018CB OVC090 29/25 Q1009 RMK A2980 OCNL LTG SW
RPVM 261200Z 11004KT 9999 FEW018CB BKN100 29/25 Q1009 RMK A2980 OCNL LTG NW
RPVM 261100Z 12003KT 9999 FEW020 BKN100 29/24 Q1008 RMK A2977
RPVM 261000Z 10004KT 9999 FEW020 BKN100 30/24 Q1007 RMK A2974
RPVM 260900Z 09004KT 9999 FEW020 BKN100 30/24 Q1007 RMK A2974
RPVM 260800Z 06006KT 9999 FEW020 BKN100 31/23 Q1007 RMK A2974
RPVM 260700Z 04006KT 9999 FEW020 BKN100 31/23 Q1007 RMK A2974
RPVM 260600Z 06006KT 030V090 9999 FEW018CB BKN100 31/22 Q1008 RMK A2977 CB S
RPVM 260500Z 05005KT 9999 FEW020 BKN250 31/23 Q1009 RMK A2980
RPVM 260400Z 05005KT 020V100 9999 FEW020 BKN250 31/23 Q1010 RMK A2983
RPVM 260300Z 04005KT 010V070 9999 FEW020 BKN250 31/24 Q1010 RMK A2983
RPVM 260200Z 06004KT 010V120 9999 FEW020 BKN250 30/24 Q1010 RMK A2983
RPVM 260100Z 05004KT 020V090 9999 FEW020 BKN100 30/24 Q1010 RMK A2985
RPVM 260000Z 01004KT 9999 FEW020 BKN100 29/25 Q1010 RMK A2983
RPVM 252300Z 13002KT 9999 FEW020 BKN100 BKN100 29/25 Q1010 RMK A2983
RPVM 252200Z VRB02KT 9999 FEW020 BKN100 28/25 Q1009 RMK A2980
RPVM 252100Z VRB02KT 9999 FEW020 BKN100 27/25 Q1009 RMK A2980
RPVM 252000Z 11002KT 9999 FEW020 BKN100 28/25 Q1008 RMK A2977
RPVM 251900Z 23002KT 9999 FEW020 BKN100 27/25 Q1008 RMK A2977
RPVM 251800Z 20002KT 9999 FEW020 BKN100 27/25 Q1009 RMK A2980
RPVM 251700Z 14002KT 9999 FEW020 SCT100 28/25 Q1009 RMK A2980
RPVM 251600Z VRB01KT 9999 FEW020 SCT300 27/25 Q1010 RMK A2983
RPVM 251500Z 00000KT 9999 FEW020 SCT300 28/25 Q1010 RMK A2983
RPVM 251400Z VRB02KT 9999 FEW020 SCT300 28/24 Q1010 RMK A2983
RPVM 251300Z VRB02KT 9999 FEW020 SCT300 29/24 Q1010 RMK A2983
RPVM 251200Z 15004KT 9999 FEW020 SCT300 30/23 Q1010 RMK A2983
RPVM 251100Z 15005KT 9999 FEW020 SCT300 30/24 Q1009 RMK A2980
RPVM 251000Z 09006KT 9999 FEW020 BKN300 31/24 Q1009 RMK A2980
RPVM 250700Z 04007KT 9999 FEW020 SCT300 33/23 Q1008 RMK A2977
RPVM 250600Z 08008KT 9999 FEW020 SCT300 32/24 Q1009 RMK A2980
RPVM 250300Z 05008KT 9999 SCT020 SCT300 31/24 Q1012 RMK A2988
RPVM 250200Z 08008KT 050V120 9999 SCT030 30/24 Q1012 RMK A2977
RPVM 250100Z 08006KT 020V140 9999 SCT020 SCT300 31/24 Q1013 RMK A2991
RPVM 250000Z 09005KT 050V130 9999 SCT020TCU BKN300 30/25 Q1013 RMK A2991 TCU SW

RPLC (CRK) – CLARK INTERNATIONAL AIRPORT
RPLC 261300Z 25002KT 9999 FEW020 BKN300 30/23 Q1009 NOSIG RMK A2980
RPLC 261200Z 22002KT 9000 SCT020 BKN300 31/22 Q1008 NOSIG RMK A2977
RPLC 261100Z 22002KT 9000 FEW020 BKN300 31/23 Q1007 NOSIG RMK A2974
RPLC 261000Z 27004KT 9000 SCT020 BKN300 33/23 Q1006 NOSIG RMK A2971
RPLC 260900Z 14004KT 9000 FEW020 BKN300 33/24 Q1006 RMK A2971
RPLC 260800Z 18006KT 9000 FEW020 SCT300 334/23 Q1006 RMK A2971
RPLC 260700Z 18006KT 8000 FEW020 BKN300 34/22 Q1006 NOSIG RMK A2971
RPLC 260500Z 18012KT 8000 FEW020 BKN300 34/23 Q1008 NOSIG RMK A2977
RPLC 260400Z 18008KT 7000 FEW020 BKN300 33/24 Q1009 NOSIG RMK A2980
RPLC 260300Z 14008KT 5000 HZ SCT020 BKN300 33/25 Q1010 RMK A2983
RPLC 260200Z 16006KT 5000 HZ SCT020 BKN300 32/25 Q1010 RMK A2983
RPLC 260000Z 14004KT 5000 HZ FEW020 BKN300 29/24 Q1010 RMK A2983
RPLC 252300Z 26002KT 5000 HZ FEW020 BKN300 28/23 Q1010 RMK A2983
RPLC 252200Z 25004KT 5000 HZ SCT020 BKN100 26/22 Q1009 RMK A2980
RPLC 252100Z 25002KT 8000 SCT020 BKN300 26/22 Q1009 NOSIG RMK A2980
RPLC 252000Z 25002KT 8000 FEW020 BKN300 27/22 Q1008 NOSIG RMK A2977
RPLC 251900Z 34002KT 8000 FEW020 BKN300 27/22 Q1008 NOSIG RMK A2977
RPLC 251800Z 36002KT 8000 FEW020 BKN300 26/22 Q1008 NOSIG RMK A2977
RPLC 251600Z 32002KT 8000 FEW020 BKN300 27/23 Q1010 NOSIG RMK A2983
RPLC 251500Z 35002KT 8000 FEW020 BKN300 27/23 Q1011 NOSIG RMK A2985
RPLC 251400Z 35002KT 8000 SCT020 BKN100 27/23 Q1011 NOSIG RMK A2985
RPLC 251300Z 35004KT 8000 SCT020 BKN100 27/23 Q1011 NOSIG RMK A2985
RPLC 251200Z 29002KT 8000 SCT020 BKN100 28/24 Q1010 NOSIG RMK A2983
RPLC 251100Z 36004KT 8000 SCT020 OVC100 28/24 Q1010 NOSIG RMK A2983
RPLC 251000Z 20006KT 8000 SCT020 BKN100 31/23 Q1009 NOSIG RMK A2980
RPLC 250700Z 18004KT 8000 SCT020 BKN300 34/23 Q1008 NOSIG RMK A2977
RPLC 250600Z 22006KT 8000 SCT020 BKN300 35/24 Q1009 NOSIG RMK A2980
RPLC 250300Z 18004KT 4000 HZ SCT020 BKN300 33/24 Q1011 RMK A2985
RPLC 250200Z 14002KT 4000 HZ SCT020 BKN300 31/24 Q1012 RMK A2988
RPLC 250100Z 18004KT 4000 HZ SCT020 BKN300 30/25 Q1012 RMK A2988
RPLC 250000Z 10002KT 4000 HZ SCT020 BKN300 30/25 Q1012 RMK A2988

RPLB (SFS) – SUBIC BAY INTERNATIONAL AIRPORT
RPLB 261300Z VRB02KT 9999 FEW018CB FEW020 BKN300 29/24 Q1009 RMK A2980 CB/OCNL LTG E
RPLB 261200Z VRB02KT 9999 FEW018CB FEW020 BKN300 29/24 Q1008 RMK A2977 CB/OCNL LTG E
RPLB 261100Z 18005KT 140V210 9999 FEW018CB FEW020 BKN300 29/24 Q1007 RMK A2974 CB NE
RPLB 261000Z 20009KT 9999 FEW018CB FEW020 BKN300 30/25 Q1007 RMK A2974 CB N NE
RPLB 260900Z 21008KT 9999 FEW018CB FEW020 BKN300 30/25 Q1006 RMK A2971 CB NW
RPLB 260800Z 22009KT 9999 FEW018CB FEW020 BKN300 31/24 Q1006 RMK A2971 CB NW
RPLB 260700Z 22008KT 9999 FEW08CB FEW020 BKN300 31/24 Q1007 RMK A2974 CB N
RPLB 260600Z 21010KT 9999 FEW018TCU FEW020 BKN300 31/24 Q1007 RMK A2974 TCU N
RPLB 260500Z 22011KT 9999 FEW018CB FEW020 BKN300 31/24 Q1008 RMK A2977 CB E
RPLB 260400Z 21008KT 9999 FEW018CB FEW020 BKN300 32/25 Q1009 RMK A2980 CB E
RPLB 260300Z 23006KT 9999 FEW018TCU FEW020 BKN300 31/25 Q1010 RMK A2983 TCU NE E
RPLB 260200Z 25005KT 220V290 9999 FEW018TCU SCT020 BKN300 31/24 Q1010 RMK A2983
RPLB 260100Z VRB02KT 9999 SCT020 BKN300 30/24 NOSIG RMK A2983 METAR RPLI 260100Z 23005KT 190V260 9999 FEW017CB FEW018 BKN280 30/25 Q1009 RMK A2980 CB SW W NW
RPLB 260000Z 06003KT 010V080 9999 FEW018CB FEW020 BKN300 29/24 Q1010 NOSIG RMK A2983
RPLB 252300Z 05003KT 9999 FEW020 BKN300 27/23 Q1010 NOSIG RMK A2983
RPLB 252200Z VRB02KT 9999 FEW020 BKN300 25/23 Q1009 NOSIG RMK A2980
RPLB 252100Z 01003KT 320V040 9999 FEW020 SCT300 27/23 Q1008 NOSIG RMK A2977
RPLB 252000Z 05006KT 9999 FEW020 26/23 Q1008 NOSIG RMK A2977
RPLB 251900Z 08008KT 9999 FEW020 27/23 Q1008 NOSIG RMK A2977
RPLB 251800Z 05003KT 9999 FEW020 25/23 Q1008 NOSIG RMK A2977
RPLB 251700Z 05004KT 9999 FEW020 26/23 Q1008 NOSIG RMK A2977
RPLB 251600Z 05004KT 9999 FEW020 26/23 Q1010 NOSIG RMK A2983
RPLB 251500Z VRB02KT 9999 FEW020 27/24 Q1010 NOSIG RMK A2983
RPLB 251400Z 03003KT 9999 FEW020 SCT300 28/24 Q1010 NOSIG RMK A2983
RPLB 251300Z VRB02KT 9999 FEW020 BKN300 28/24 Q1010 NOSIG RMK A2983
RPLB 251200Z 33003KT 290V030 9999 FEW020 BKN300 29/23 Q1010 NOSIG RMK A2983
RPLB 251100Z 33006KT 270V340 9999 FEW020 BKN80 30/24 Q1010 NOSIG RMK A2983
RPLB 251000Z 22007KT 9999 FEW020 BKN080 OVC300 30/24 Q1009 NOSIG RMK A2980
RPLB 250700Z 20010KT 999 TS FEW018CB FEW020 SCT080 BKN300 31/24 Q1008 NOSIG RM KA2977 OCNL TS E
RPLB 250600Z 22010KT 9999 FEW020 BKN300 32/25 Q1009 NOSIG RMK A2980
RPLB 250300Z 23008KT 9999 FEW020TCU BKN300 31/24 Q1011 NOSIG RMK A2985 TCU NE
RPLB 250200Z 22005KT 9999 FEW020 BKN300 31/24 Q1012 NOSIG RMK A2988
RPLB 250100Z 22003KT 160V260 9999 FEW020 BKN300 30/25 Q1012 NOSIG RMK A2988
RPLB 250000Z 04003KT 360V080 9999 FEW020 BKN300 29/24 Q1012 NOSIG RMK A2988

RPLI (LAO) – LAOAG INTERNATIONAL AIRPORT
RPLI 261200Z 15008KT 6000 -SHRA BKN018 OVC090 26/24 Q1008 RMK A2977
RPLI 261100Z 22006KT 180V240 9999 FEW017CB BKN280 29/26 Q1007 NOSIG RMK A2974 CB S/SW
RPLI 261000Z 23007KT 200V260 9999 FEW017CB BKN290 29/26 Q1006 NOSIG RMK A2971 CB SE SSW
RPLI 260900Z 22008KT 190V250 8000 VCSH FEW017CB BKN290 31/26 Q1006 NOSIG RMK A2971 CB/VCSH NE-SE
RPLI 260800Z 22009KT 180V260 9999 FEW07CB BKN290 31/26 Q1006 NOSIG RMK A2971 CB NE-SE
RPLI 260700Z 22009KT 190V250 9999 FEW017CB FEW018 BKN290 31/27 Q1006 NOSIG RMK A2971 CB NE E SE
RPLI 260600Z 22010KT 200V260 9999 FEW017CB FEW018 BKN280 31/26 Q1006 RETS NOISG RMK A2971 CB NE E
RPLI 260500Z 23011KT 200V260 9999 TS FEW017CB FEW018 BKN280 31/26 Q1007 NOSIG RMK A2974 CB NE
RPLI 260400Z 23009KT 200V270 9999 FEW018TCU 31/26 Q1008 NOSIG RMK A2977 TCU SE
RPLI 260300Z 22009KT 190V250 9999 FEW017CB FEW018 BKN280 31/26 Q1009 NOSIG RMK A2980 CB NE- METAR RPMZ 260300Z VRB04KT 9999 FEW017TCU SCT090 30/26 Q1010 RMK A2983 TCU WSW
RPLI 260200Z 22008KT 190V260 9999 FEW017 FEW018 BKN280 31/26 Q1009 RMK A2980 CB SSW
RPLI 260100Z 23005KT 190V260 9999 FEW017CB FEW018 BKN280 30/25 Q1009 RMK A2980 CB SW W NW
RPLI 260000Z 11004KT 070V130 8000 FEW07CB BKN280 29/25 Q1009 RMK A2980 CB SW W NW
RPLI 252300Z 09004KT 8000 FEW017CB BKN280 27/25 Q1009 RMK A2980 CB SW NW
RPLI 252200Z 09002KT 8000 FEW018 BKN280 25/24 Q1008 NOSIG RMK A2977
RPLI 252100Z 09003KT 9999 FEW018 SCT290 25/25 Q1007 NOSIG RMK A2974
RPLI 251800Z 10005KT 9999 FEW018 BKN280 26/25 Q1007 NOSIG RMK A2974
RPLI 251500Z 08003KT 9999 FEW018 SCT290 27/25 Q1009 NOSIG RMK A2980
RPLI 251200Z 12005KT 9999 FEW017CB FEW018 BKN280 28/26 Q1009 NOSIG RMK A2980 CB ESE
RPLI 251100Z 23005KT 200V280 9999 FEW017CB FEW018TCU BKN280 29/26 Q1009 NOSIG RMK A2980 CB E-SE TCU
RPLI 251000Z 22006KT 9999 FEW017CB FEW018 BKN280 30/25 Q1008 NOSIG RMK A2977 CB E-S METAR RPMZ 251000Z 27006KT 9999 FEW016CB FEW017 SCT090 28/25 Q1008 RMK A2977 RESHRA RMK A2977 CB SW
RPLI 250700Z 23005KT 200V280 9999 FEW017CB SCT018 BKN280 31/26 Q1008 NOSIG RMK A2977 CB NE-E
RPLI 250600Z 24004KT 200V320 9999 FEW017CB FEW018 BKN100 31/26 Q1009 NOSIG RMK A2980 CB NE-ESE
RPLI 250300Z 13005KT 090V160 9999 SCT018 BKN090 29/26 Q1011 NOSIG RMK A2985
RPLI 250200Z 14005KT 8000 VCSH SCT018 OVC090 27/26 Q1012 RMK A2988 VCSH N
RPLI 250100Z 20008KT 8000 -SHRA FEW017CB SCT018 BKN090 26/25 Q1012 RMK A2988 CB N
RPLI 250000Z 24007KT 210V280 5000 -TSRA FEW017CB BKN018 OVC090 27/26 Q1012 RMK A2988 CB SW-NW

RPVP (PPS) – PUERTO PRINCESA INTERNATIONAL AIRPORT
RPVP 261300Z 21004KT 9999 FEW019 29/25 Q1009 RMK A2980
RPVP 261200Z 21004KT 9999 FEW019 29/24 Q1008 RMK A2977
RPVP 261100Z 21006KT 9999 FEW019 SCT250 30/25 Q1007 RMK A2974
RPVP 261000Z 18004KT 9999 FEW019 SCT250 30/25 Q007 RMK A2974
RPVP 260900Z 18006KT 9999 FEW017CB SCT250 31/25 Q1006 RMK A2971 CB WNW
RPVP 260800Z 18008KT 9999 FEW017CB 32/25 Q1006 RMK A2971 CB WNW
RPVP 260700Z 18008KT 9999 FEW017CB 32/26 Q1006 RMK A2971 CB NW
RPVP 260500Z 18008KT 9999 FEW017CB SCT250 32/25 Q1008 RMK A2977 CB W
RPVP 260400Z 18008KT 9999 FEW017CB BKN250 3/26 Q1009 RMK A2980 CB W WNW
RPVP 260300Z 18008KT 9999 FEW019 BKN250 32/25 Q1009 RMK A2980
RPVP 260200Z 18006KT 9999 FEW019 31/25 Q1010 RMK A2983
RPVP 260000Z 30004KT 9999 FEW019 SCT250 29/25 Q1010 RMK A2983
RPVP 252300Z 27006KT 9999 FEW019 SCT250 27/24 Q1009 RMK A2980
RPVP 252200Z 27006KT 9999 FEW019 SCT240 26/24 Q1008 RMK A2977
RPVP 252100Z 27004KT 9999 FEW020 26/24 Q1008 RMK A2977
RPVP 252000Z 27004KT 9999 FEW020 26/24 Q1008 RMK A2977
RPVP 251800Z 24004KT 9999 FEW020 27/24 Q1008 RMK A2977
RPVP 251500Z 27004KT 9999 FEW019 28/24 Q1010 RMK A2983
RPVP 251300Z 18004KT 9999 FEW019 29/24 Q1010 RMK A2983
RPVP 251200Z 18004KT 9999 FEW019 29/24 Q1009 RMK A2980
RPVP 251100Z 18004KT 9999 FEW019 30/24 Q1009 RMK A2980
RPVP 251000Z 18004KT 9999 FEW019 30/25 Q1008 RMK A2977
RPVP 250700Z 18006KT 9999 FEW019 32/2 Q1008 RMK A2977
RPVP 250600Z 16006KT 9999 FEW019TCU 32/25 Q1009 RMK A2980 TCU NW
RPVP 250300Z 16006KT 9999 FEW019 SCT250 32/25 Q1011 RMK A2985
RPVP 250200Z 16004KT 9999 FEW019 31/25 Q1011 RMK A2985
RPVP 250100Z 16004KT 9999 FEW020 SCT250 30/24 Q1011 RMK A2985
RPVP 250000Z 23004KT 9999 FEW020 SCT250 28/23 Q1011 RMK A2985

RPVD (DGT) – SIBULAN AIRPORT (DUMAGUETE AIRPORT)
RPVD 261200Z 27004KT 9999 FEW014CB FEW015 BKN220 29/25 Q1008 RMK A2977 CB/OCNL LTG WNW/NW
RPVD 261100Z 14004KT 9999 FEW015 BKN220 29/25 Q1007 RMK A2974
RPVD 261000Z 09004KT 9999 FEW015 BKN220 30/25 Q1007 RMK A2974
RPVD 260900Z 09004KT 9999 VCSH FEW014CB FEW015 BKN220 31/25 Q1006 RMK A2971 CB/VCSH NW
RPVD 260800Z 09006KT 9999 VCSH FEW014CB FEW015 BKN220 31/25 Q1006 RMK A2971 CB VCSH WNW-NW
RPVD 260700Z 11006KT 9999 FEW015 BKN220 31/24 Q1006 RMK A2971
RPVD 260500Z 04008KT 9999 FEW015 BKN220 32/26 Q1007 RMK A2974
RPVD 260400Z 04006KT 9999 FEW015 BKN220 32/26 Q1008 RMK A2977
RPVD 260300Z 02006KT 9999 FEW015 SCT220 32/26 Q1009 RMK A2980
RPVD 260200Z 02004KT 9999 FEW015 SCT220 32/25 Q1009 RMK A2980
RPVD 260000Z 04006KT 9999 FEW015 31/26 Q1010 RMK A2983
RPVD 252300Z 25004KT 9999 FEW015 28/24 Q1009 RMK A2980
RPVD 252200Z 27004KT 9999 FEW015 26/23 Q1008 RMK A2977
RPVD 252100Z 22004KT 9999 FEW015 26/23 Q1008 RMK A2977
RPVD 251800Z 22004KT 9999 FEW015 26/23 Q1008 RMK A2977
RPVD 251500Z 22004KT 9999 FEW015 27/23 Q1010 RMK A2983
RPVD 251200Z 22004KT 0000 FEW015 28/24 Q1009 RMK A2980
RPVD 250900Z 07004KT 9999 FEW015 BKN220 30/24 Q1007 RMK A2974
RPVD 250700Z 07006KT 9999 FEW014CB FEW015 SCT220 32/23 Q1008 RMK A2977 CB NNW
RPVD 250600Z 04004KT 9999 FEW014CB FEW015 31/25 Q1008 RMK A2977 CB WSW/NNW
RPVD 250300Z 09008KT 9999 FEW015 SCT220 31/25 Q1011 RMK A2985
RPVD 250200Z 07010KT 9999 FEW015 31/25 Q1012 RMK A2988
RPVD 250100Z 04006KT 9999 FEW015 31/24 Q1012 RMK A2988
RPVD 250000Z 11004KT 9999 FEW015 30/25 Q1011 RMK A2985

RPMR (GES) – GENERAL SANTOS INTERNATIONAL AIRPORT
RPMR 260900Z 34003KT 9999 SCT018 OVC080 25/24 Q1008 RMK A2977
RPMR 260700Z 00000KT 9000 -RA SCT018 OVC080 25/23 Q1007 RMK A2974
RPMR 260500Z 16006KT 130V190 9000 -RA SCT018 OV0C80 25/23 Q1009 RMK A2980
RPMR 260400Z 13006KT 090V160 9999 VCRA SCT018 BKN080 27/23 Q11010 RM KA2983 VCRA SE-E
RPMR 260300Z 04005KT 350V090 9999 FEW015CB BKN090 BKN290 32/24 Q1009 RMK A2980 CB S W
RPMR 260200Z 18003KT 140V230 9999 -RA SCT018 OVC080 25/23 Q1011 RMK A2985
RPMR 260000Z 17005KT 9999 SCT018 BKN080 25/22 Q1011 RMK A2984 VCSH S-SW
RPMR 250900Z 06002KT 9999 FEW018 BKN080 26/23 Q1008 RMK A2977
RPMR 250700Z 08006KT 9999 -RA SCT018 OVC080 27/23 Q1008 RMK A2977
RPMR 250600Z 35006KT 9999 -RA SCT018 OVC080 27/22 Q1009 RMK A2980
RPMR 250300Z 32005KT 7000 -RA SCT018 OVC080 27/23 Q1012 RMK A2988
RPMR 250200Z 33005KT 7000 -RA SCT018 OVC080 27/22 Q1013 RMK A2991
RPMR 250100Z 32006KT 8000 SCT018 OVC080 27/21 Q1013 RMK A2991
RPMR 250000Z VRB01KT 8000 SCT018 OVC080 27/22 Q1013 RMK A2991

RPMD (DVO) – FRANCISCO BANGOY INTERNATIONAL AIRPORT
RPMD 261300Z VRB01KT 9999 FEW016 SCT090 OVC260 25/25 Q1010 RMK A2983
RPMD 261200Z VRB02KT 9999 FEW016 BKN090 OVC260 25/25 Q1009 RMK A2980
RPMD 261100Z 29003KT 9999 FEW015CB BKN090 OVC260 25/25 Q1009 RERA RMK A2980 CB SW
RPMD 261000Z 32003KT 280V350 8000 -RA FEW015CB BKN080 OVC260 26/26 Q1008 RMK A2977 CB S-SW
RPMD 260900Z 24004KT 9999 FEW015CB BKN090 OVC260 27/26 Q1007 RMK A2974 CB WSW-W
RPMD 260800Z 17005KT 9999 SCT015CB BKN090 OVC260 27/27 Q1007 RETS RMK A2974 CB SW W
RPMD 260700Z 17008KT 8000 -TSRA SCT015CB OVC080 26/26 Q1007 RMK A2974 SLGT TS N-NE
RPMD 260600Z 16008KT 9000 -SHRA SCT015CB SCT016 BKN090 OVC260 29/25 Q1007 RMK A2974 SHRA CB NW N E SE SW LOW VLD MOV N
RPMD 260500Z 17006KT 8000 -SHRA SCT015CB BKN090 BKN260 28/26 Q1008 RMK A2977 CB WNW E S SW WSW
RPMD 260400Z 07005KT 040V120 9999 VCSH FEW015CB BKN090 BKN290 32/23 Q1008 RMK A2977 VCSH E CB E S WSW
RPMD 260300Z 04005KT 350V090 9999 FEW015CB BKN090 BKN290 32/24 Q1009 RMK A2980 CB S W
RPMD 260200Z 05005KT 320V090 9999 FEW015CB BKN090 BKN290 30/25 Q1010 RMK A2983 CB S
RPMD 260100Z 02005KT 310V060 9999 FW015CB BKN080 RMK A2983 CB S
RPMD 260000Z 05005KT 010V090 9999 FEW016 BKN090 28/25 Q1010 RMK A2983
RPMD 252300Z 05005KT 9999 FEW016 BKN090 BKN260 27/26 Q1009 RMK A2980
RPMD 252200Z VRB02KT 9999 VCSH SCT015 BKN090 OVC260 25/25 Q1009 RESHRA RMK A2980 VCSH N NW SW
RPMD 252100Z VRB02KT 8000 -SHRA SCT015 OVC090 25/25 Q1008 RMK A2977
RPMD 252000Z VRB02KT 9999 FEW016 SCT090 OVC260 25/25 Q1008 RMK A2977
RPMD 251900Z VRB01KT 9999 FEW016 SCT090 OVC260 25/25 Q1009 RMK A2980
RPMD 251800Z VRB02KT 9999 FEW016 BKN290 25/25 Q1009 RMK A2980
RPMD 251700Z 34003KT 310V010 9999 FEW016 BKN260 25/25 Q1009 RMK A2980
RPMD 251600Z 32002KT 9999 FEW016 SCT290 26/24 Q1010 RMK A2983
RPMD 251500Z VRB02KT 9999 FEW016 BKN090 OVC260 25/25 Q1010 RMK A2983
RPMD 251400Z 30003KT 9999 FEW020 SCT090 BKN260 26/23 Q1010 RMK A2983
RPMD 251300Z 26002KT 9999 FEW016 SCT090 BKN260 26/23 Q1010 RMK A2983
RPMD 251200Z 26003KT 9999 FEW016 SCT090 OVC260 27/23 Q1010 RMK A2983
RPMD 251100Z 21003KT 9999 FEW016 SCT090 OVC260 27/23 Q1009 RMK A2980
RPMD 251000Z VRB04KT 9999 FEW016 SCT090 BKN260 27/23 Q1008 RMK A2977
RPMD 250700Z 15005KT 080V200 9999 VCSH FEW015 SCT090 BKN260 30/23 Q1008RMK A2977 VCSH SW
RPMD 250600Z 16005KT 110V220 9999 VCSH SCT015 BKN090 BKN260 29/24 Q1009 RMK A2980 VCSH S-SW/W
RPMD 250300Z VRB01KT 9999 FEW016 BKN090 OVC260 28/23 Q1012 RMK A2988
RPMD 250200Z 03004KT 360V060 9999 VCSH SCT015 BKN090 OVC260 27/24 Q1013 RMK A2991 VCSH NE
RPMD 250100Z VRB02KT 9999 VCSH SCT015 BKN090 OVC260 26/24 Q1013 RMK A2991 VCSH N-NE/S
RPMD 250000Z VRB02KT 8000 -RA SCT015 BKN090 OVC260 26/25 Q1013 RMK A2991

RPMZ (ZAM) – ZAMBOANGA INTERNATIONAL AIRPORT
RPMZ 261200Z VRB02KT 9999 FEW017 SCT090 BKN300 27/24 Q1009 RMK A2980
RPMZ 261000Z 29007KT 9999 FEW017 BKN300 28/25 Q1008 RMK A2977
RPMZ 260900Z 27007KT 240V300 9999 FEW016CB FEW017 29/26 Q1007 RMK A2974 CB W
RPMZ 260800Z 28009KT 9999 FEW016CB 30/24 Q1007 RMK A2974 CB S
RPMZ 260700Z 27008KT 220V290 9999 FEW016CB FEW017 30/25 Q1007 RMK A2974 CB NW S
RPMZ 260600Z 21006KT 150V270 9999 FEW016CB FEW017 30/26 Q1008 RMK A2977 CB N S
RPMZ 260500Z 26008KT 220V280 9999 FEW016CB FEW017 30/27 Q1008 RMK A2977 CB NS
RPMZ 260400Z 25007KT 200V290 9999 FEW016CB FEW017 30/26 Q1009 RMK A2980 CB S
RPMZ 260300Z VRB04KT 9999 FEW017TCU SCT090 30/26 Q1010 RMK A2983 TCU WSW
RPMZ 260200Z VRB02KT 9999 FEW017 BKN090 28/24 Q1011 RMK A2985
RPMZ 260100Z 21004KT 170V270 9999 SCT017 BKN090 27/25 Q1011 RMK A2985
RPMZ 260000Z 28002KT 9999 FEW016CB FW017 BKN090 27/25 Q1010 RMK A2983 CB E
RPMZ 252300Z 33003KT 9999 FEW016CB FEW017 BKN090 26/25 Q1010 RMK A2983 CB SW E
RPMZ 252200Z VRB01KT 9999 FEW016CB FEW017 SCT090 25/25 Q1009 RMK A2980 CB SE-SE E
RPMZ 252100Z 00000KT 9999 FEW017 BKB300 25/25 Q1008 RMK A2977
RPMZ 251800Z 02001KT 9999 FEW017 25/24 Q1009 RMK A2980
RPMZ 251500Z VRB02KT 9999 FEW017 BKN090 26/25 Q1010 RMK A2983
RPMZ 251200Z 27005KT 9999 FEW0117 SCT300 2725 Q1009 RMK A2980
RPMZ 251000Z 27006KT 9999 FEW016CB FEW017 SCT090 28/25 Q1008 RMK A2977 RESHRA RMK A2977 CB SW
RPMZ 250700Z 22004KT 140V260 9999 FEW017 BKN090 30/26 Q1008 RMK A2977
RPMZ 250600Z 30006KT 230V320 9999 FEW017 BKN090 30/26 Q1009 RMK A2980
RPMZ 250300Z 16005KT 110V210 9999 FEW016CB FEW017 SCT090 31/25 Q1011 RMK A2985 CB N/S
RPMZ 250200Z 20004KT 130V300 9999 FEW017TCU SCT090 31/25 Q1012 RMK A2988 TCU N/S
RPMZ 250100Z VRB02KT 9999 FEW017 SCT090 30/24 Q1012 RMK A2988
RPMZ 250000Z VRB02KT 9999 FEW017 SCT090 29/26 Q1011 RMK A2985